sensor_id;sensor_type;location;lat;lon;timestamp;temperature;humidity
11497;DHT22;5805;51.542;7.230;2022-07-29T00:02:03;20.80;77.00
11497;DHT22;5805;51.542;7.230;2022-07-29T00:04:29;20.80;77.10
11497;DHT22;5805;51.542;7.230;2022-07-29T00:06:56;20.80;77.30
11497;DHT22;5805;51.542;7.230;2022-07-29T00:09:22;20.70;77.70
11497;DHT22;5805;51.542;7.230;2022-07-29T00:11:47;20.80;77.50
11497;DHT22;5805;51.542;7.230;2022-07-29T00:14:13;20.80;78.10
11497;DHT22;5805;51.542;7.230;2022-07-29T00:16:39;20.80;77.60
11497;DHT22;5805;51.542;7.230;2022-07-29T00:19:04;20.80;77.50
11497;DHT22;5805;51.542;7.230;2022-07-29T00:21:30;20.80;77.60
11497;DHT22;5805;51.542;7.230;2022-07-29T00:23:57;20.80;78.20
11497;DHT22;5805;51.542;7.230;2022-07-29T00:26:23;20.80;78.50
11497;DHT22;5805;51.542;7.230;2022-07-29T00:28:48;20.90;78.50
11497;DHT22;5805;51.542;7.230;2022-07-29T00:31:14;20.90;78.20
11497;DHT22;5805;51.542;7.230;2022-07-29T00:33:40;20.90;78.00
11497;DHT22;5805;51.542;7.230;2022-07-29T00:36:06;20.90;78.30
11497;DHT22;5805;51.542;7.230;2022-07-29T00:38:31;20.90;78.10
11497;DHT22;5805;51.542;7.230;2022-07-29T00:40:58;20.90;78.00
11497;DHT22;5805;51.542;7.230;2022-07-29T00:43:24;20.90;78.10
11497;DHT22;5805;51.542;7.230;2022-07-29T00:45:50;20.90;77.70
11497;DHT22;5805;51.542;7.230;2022-07-29T00:48:15;20.90;77.70
11497;DHT22;5805;51.542;7.230;2022-07-29T00:50:41;20.80;78.10
11497;DHT22;5805;51.542;7.230;2022-07-29T00:53:08;20.80;78.60
11497;DHT22;5805;51.542;7.230;2022-07-29T00:55:35;20.90;78.90
11497;DHT22;5805;51.542;7.230;2022-07-29T00:58:02;20.90;79.10
11497;DHT22;5805;51.542;7.230;2022-07-29T01:00:29;20.90;79.30
11497;DHT22;5805;51.542;7.230;2022-07-29T01:02:54;20.90;79.20
11497;DHT22;5805;51.542;7.230;2022-07-29T01:05:23;20.90;79.30
11497;DHT22;5805;51.542;7.230;2022-07-29T01:07:51;20.90;79.60
11497;DHT22;5805;51.542;7.230;2022-07-29T01:10:18;20.90;79.50
11497;DHT22;5805;51.542;7.230;2022-07-29T01:12:46;20.80;79.40
11497;DHT22;5805;51.542;7.230;2022-07-29T01:15:14;20.70;79.90
11497;DHT22;5805;51.542;7.230;2022-07-29T01:17:43;20.70;80.50
11497;DHT22;5805;51.542;7.230;2022-07-29T01:20:14;20.60;81.00
11497;DHT22;5805;51.542;7.230;2022-07-29T01:29:02;20.60;83.20
11497;DHT22;5805;51.542;7.230;2022-07-29T01:31:33;20.50;83.50
11497;DHT22;5805;51.542;7.230;2022-07-29T01:34:03;20.50;83.90
11497;DHT22;5805;51.542;7.230;2022-07-29T01:36:32;20.50;84.20
11497;DHT22;5805;51.542;7.230;2022-07-29T01:39:05;20.90;84.10
11497;DHT22;5805;51.542;7.230;2022-07-29T01:41:32;20.50;84.00
11497;DHT22;5805;51.542;7.230;2022-07-29T01:44:04;20.50;85.00
11497;DHT22;5805;51.542;7.230;2022-07-29T01:46:35;20.40;84.70
11497;DHT22;5805;51.542;7.230;2022-07-29T01:49:06;20.30;85.50
11497;DHT22;5805;51.542;7.230;2022-07-29T01:51:37;20.30;85.90
11497;DHT22;5805;51.542;7.230;2022-07-29T01:54:10;20.30;86.10
11497;DHT22;5805;51.542;7.230;2022-07-29T01:56:39;20.40;86.40
11497;DHT22;5805;51.542;7.230;2022-07-29T01:59:08;20.40;86.40
11497;DHT22;5805;51.542;7.230;2022-07-29T02:01:36;20.40;86.80
11497;DHT22;5805;51.542;7.230;2022-07-29T02:04:03;20.40;86.80
11497;DHT22;5805;51.542;7.230;2022-07-29T02:06:32;20.40;87.40
11497;DHT22;5805;51.542;7.230;2022-07-29T02:08:58;20.30;88.30
11497;DHT22;5805;51.542;7.230;2022-07-29T02:11:25;20.30;88.60
11497;DHT22;5805;51.542;7.230;2022-07-29T02:13:52;20.20;88.80
11497;DHT22;5805;51.542;7.230;2022-07-29T02:16:21;20.30;89.20
11497;DHT22;5805;51.542;7.230;2022-07-29T02:18:51;20.20;89.40
11497;DHT22;5805;51.542;7.230;2022-07-29T02:21:21;20.20;89.10
11497;DHT22;5805;51.542;7.230;2022-07-29T02:23:48;20.10;89.70
11497;DHT22;5805;51.542;7.230;2022-07-29T02:26:15;20.20;89.60
11497;DHT22;5805;51.542;7.230;2022-07-29T02:28:42;20.10;89.70
11497;DHT22;5805;51.542;7.230;2022-07-29T02:31:08;20.10;90.20
11497;DHT22;5805;51.542;7.230;2022-07-29T02:33:37;20.10;90.30
11497;DHT22;5805;51.542;7.230;2022-07-29T02:36:04;20.10;90.40
11497;DHT22;5805;51.542;7.230;2022-07-29T02:38:31;20.00;90.90
11497;DHT22;5805;51.542;7.230;2022-07-29T02:40:58;20.00;90.80
11497;DHT22;5805;51.542;7.230;2022-07-29T02:43:25;20.00;90.90
11497;DHT22;5805;51.542;7.230;2022-07-29T02:45:53;20.00;91.00
11497;DHT22;5805;51.542;7.230;2022-07-29T02:48:24;19.90;91.00
11497;DHT22;5805;51.542;7.230;2022-07-29T02:50:57;20.20;91.40
11497;DHT22;5805;51.542;7.230;2022-07-29T02:53:27;19.90;91.70
11497;DHT22;5805;51.542;7.230;2022-07-29T02:55:57;19.80;91.60
11497;DHT22;5805;51.542;7.230;2022-07-29T02:58:27;19.80;91.80
11497;DHT22;5805;51.542;7.230;2022-07-29T03:00:55;19.70;92.00
11497;DHT22;5805;51.542;7.230;2022-07-29T03:03:22;19.70;92.10
11497;DHT22;5805;51.542;7.230;2022-07-29T03:05:53;19.70;92.20
11497;DHT22;5805;51.542;7.230;2022-07-29T03:08:20;19.80;92.30
11497;DHT22;5805;51.542;7.230;2022-07-29T03:10:48;19.80;92.40
11497;DHT22;5805;51.542;7.230;2022-07-29T03:13:14;19.80;92.70
11497;DHT22;5805;51.542;7.230;2022-07-29T03:15:42;19.90;92.70
11497;DHT22;5805;51.542;7.230;2022-07-29T03:18:08;19.90;92.80
11497;DHT22;5805;51.542;7.230;2022-07-29T03:20:34;19.90;92.80
11497;DHT22;5805;51.542;7.230;2022-07-29T03:23:01;19.90;93.00
11497;DHT22;5805;51.542;7.230;2022-07-29T03:25:27;19.90;92.80
11497;DHT22;5805;51.542;7.230;2022-07-29T03:27:53;19.90;92.90
11497;DHT22;5805;51.542;7.230;2022-07-29T03:30:18;19.90;93.00
11497;DHT22;5805;51.542;7.230;2022-07-29T03:32:44;19.80;93.10
11497;DHT22;5805;51.542;7.230;2022-07-29T03:35:10;19.70;93.10
11497;DHT22;5805;51.542;7.230;2022-07-29T03:37:36;19.60;93.60
11497;DHT22;5805;51.542;7.230;2022-07-29T03:40:05;19.60;93.70
11497;DHT22;5805;51.542;7.230;2022-07-29T03:42:35;19.60;94.00
11497;DHT22;5805;51.542;7.230;2022-07-29T03:45:05;19.60;94.10
11497;DHT22;5805;51.542;7.230;2022-07-29T03:47:33;19.60;93.80
11497;DHT22;5805;51.542;7.230;2022-07-29T03:50:05;19.70;93.90
11497;DHT22;5805;51.542;7.230;2022-07-29T03:52:31;19.80;93.80
11497;DHT22;5805;51.542;7.230;2022-07-29T03:54:57;20.20;93.80
11497;DHT22;5805;51.542;7.230;2022-07-29T03:57:27;19.90;93.40
11497;DHT22;5805;51.542;7.230;2022-07-29T03:59:53;19.90;93.40
11497;DHT22;5805;51.542;7.230;2022-07-29T04:02:20;19.90;93.20
11497;DHT22;5805;51.542;7.230;2022-07-29T04:04:46;19.90;93.20
11497;DHT22;5805;51.542;7.230;2022-07-29T04:07:12;20.00;93.10
11497;DHT22;5805;51.542;7.230;2022-07-29T04:09:38;20.10;93.00
11497;DHT22;5805;51.542;7.230;2022-07-29T04:12:04;20.10;92.70
11497;DHT22;5805;51.542;7.230;2022-07-29T04:14:32;20.10;92.70
11497;DHT22;5805;51.542;7.230;2022-07-29T04:16:58;20.10;92.90
11497;DHT22;5805;51.542;7.230;2022-07-29T04:19:24;20.20;92.70
11497;DHT22;5805;51.542;7.230;2022-07-29T04:21:50;20.40;92.30
11497;DHT22;5805;51.542;7.230;2022-07-29T04:24:15;20.20;92.10
11497;DHT22;5805;51.542;7.230;2022-07-29T04:26:41;20.20;91.90
11497;DHT22;5805;51.542;7.230;2022-07-29T04:29:07;20.20;91.90
11497;DHT22;5805;51.542;7.230;2022-07-29T04:31:34;20.30;91.90
11497;DHT22;5805;51.542;7.230;2022-07-29T04:33:59;20.30;92.50
11497;DHT22;5805;51.542;7.230;2022-07-29T04:36:25;20.20;92.40
11497;DHT22;5805;51.542;7.230;2022-07-29T04:38:51;20.20;93.00
11497;DHT22;5805;51.542;7.230;2022-07-29T04:41:17;20.20;93.80
11497;DHT22;5805;51.542;7.230;2022-07-29T04:43:42;20.30;96.20
11497;DHT22;5805;51.542;7.230;2022-07-29T04:46:08;20.20;99.90
11497;DHT22;5805;51.542;7.230;2022-07-29T04:48:35;20.10;99.90
11497;DHT22;5805;51.542;7.230;2022-07-29T04:51:01;20.10;99.90
11497;DHT22;5805;51.542;7.230;2022-07-29T04:53:26;19.90;99.90
11497;DHT22;5805;51.542;7.230;2022-07-29T04:55:52;19.80;99.90
11497;DHT22;5805;51.542;7.230;2022-07-29T04:58:18;19.70;99.90
11497;DHT22;5805;51.542;7.230;2022-07-29T05:00:44;19.70;99.90
11497;DHT22;5805;51.542;7.230;2022-07-29T05:03:09;19.60;99.90
11497;DHT22;5805;51.542;7.230;2022-07-29T05:05:36;19.50;99.90
11497;DHT22;5805;51.542;7.230;2022-07-29T05:08:02;19.40;99.90
11497;DHT22;5805;51.542;7.230;2022-07-29T05:10:28;19.40;99.90
11497;DHT22;5805;51.542;7.230;2022-07-29T05:12:54;19.30;99.90
11497;DHT22;5805;51.542;7.230;2022-07-29T05:15:20;19.40;99.90
11497;DHT22;5805;51.542;7.230;2022-07-29T05:17:45;19.30;99.90
11497;DHT22;5805;51.542;7.230;2022-07-29T05:20:11;19.50;99.90
11497;DHT22;5805;51.542;7.230;2022-07-29T05:22:38;19.10;99.90
11497;DHT22;5805;51.542;7.230;2022-07-29T05:25:04;19.10;99.90
11497;DHT22;5805;51.542;7.230;2022-07-29T05:27:30;19.20;99.90
11497;DHT22;5805;51.542;7.230;2022-07-29T05:29:56;19.20;99.90
11497;DHT22;5805;51.542;7.230;2022-07-29T05:32:21;19.20;99.90
11497;DHT22;5805;51.542;7.230;2022-07-29T05:34:47;19.20;99.90
11497;DHT22;5805;51.542;7.230;2022-07-29T05:37:13;19.30;99.90
11497;DHT22;5805;51.542;7.230;2022-07-29T05:39:40;19.30;99.90
11497;DHT22;5805;51.542;7.230;2022-07-29T05:42:08;19.30;99.90
11497;DHT22;5805;51.542;7.230;2022-07-29T05:44:36;19.30;99.90
11497;DHT22;5805;51.542;7.230;2022-07-29T05:47:02;19.30;99.90
11497;DHT22;5805;51.542;7.230;2022-07-29T05:49:27;19.30;99.90
11497;DHT22;5805;51.542;7.230;2022-07-29T05:51:53;19.40;99.90
11497;DHT22;5805;51.542;7.230;2022-07-29T05:54:19;19.50;99.90
11497;DHT22;5805;51.542;7.230;2022-07-29T05:56:46;19.60;99.90
11497;DHT22;5805;51.542;7.230;2022-07-29T05:59:11;19.60;99.90
11497;DHT22;5805;51.542;7.230;2022-07-29T06:01:37;19.70;99.90
11497;DHT22;5805;51.542;7.230;2022-07-29T06:04:03;19.70;99.90
11497;DHT22;5805;51.542;7.230;2022-07-29T06:06:28;19.80;99.90
11497;DHT22;5805;51.542;7.230;2022-07-29T06:08:54;19.80;99.90
11497;DHT22;5805;51.542;7.230;2022-07-29T06:11:20;19.80;99.90
11497;DHT22;5805;51.542;7.230;2022-07-29T06:13:47;19.70;99.90
11497;DHT22;5805;51.542;7.230;2022-07-29T06:16:12;19.70;99.90
11497;DHT22;5805;51.542;7.230;2022-07-29T06:18:38;19.70;99.90
11497;DHT22;5805;51.542;7.230;2022-07-29T06:21:07;19.60;99.90
11497;DHT22;5805;51.542;7.230;2022-07-29T06:23:33;19.60;99.90
11497;DHT22;5805;51.542;7.230;2022-07-29T06:25:59;19.70;99.90
11497;DHT22;5805;51.542;7.230;2022-07-29T06:28:25;19.80;99.90
11497;DHT22;5805;51.542;7.230;2022-07-29T06:30:52;20.00;99.90
11497;DHT22;5805;51.542;7.230;2022-07-29T06:33:17;20.00;99.90
11497;DHT22;5805;51.542;7.230;2022-07-29T06:35:43;20.20;99.90
11497;DHT22;5805;51.542;7.230;2022-07-29T06:38:09;20.30;99.90
11497;DHT22;5805;51.542;7.230;2022-07-29T06:40:35;20.60;99.90
11497;DHT22;5805;51.542;7.230;2022-07-29T06:43:00;20.60;99.90
11497;DHT22;5805;51.542;7.230;2022-07-29T06:45:26;20.70;99.90
11497;DHT22;5805;51.542;7.230;2022-07-29T06:47:53;20.70;99.90
11497;DHT22;5805;51.542;7.230;2022-07-29T06:50:19;20.70;99.90
11497;DHT22;5805;51.542;7.230;2022-07-29T06:52:45;20.70;99.90
11497;DHT22;5805;51.542;7.230;2022-07-29T06:55:10;20.80;99.90
11497;DHT22;5805;51.542;7.230;2022-07-29T06:57:36;20.70;99.90
11497;DHT22;5805;51.542;7.230;2022-07-29T07:00:02;20.50;99.90
11497;DHT22;5805;51.542;7.230;2022-07-29T07:02:28;20.50;99.90
11497;DHT22;5805;51.542;7.230;2022-07-29T07:04:55;20.60;99.90
11497;DHT22;5805;51.542;7.230;2022-07-29T07:07:21;20.60;99.90
11497;DHT22;5805;51.542;7.230;2022-07-29T07:09:47;20.80;99.90
11497;DHT22;5805;51.542;7.230;2022-07-29T07:12:12;20.80;99.90
11497;DHT22;5805;51.542;7.230;2022-07-29T07:14:38;20.90;99.90
11497;DHT22;5805;51.542;7.230;2022-07-29T07:17:04;21.00;99.90
11497;DHT22;5805;51.542;7.230;2022-07-29T07:19:30;20.90;99.90
11497;DHT22;5805;51.542;7.230;2022-07-29T07:21:57;21.00;99.90
11497;DHT22;5805;51.542;7.230;2022-07-29T07:24:22;21.10;99.90
11497;DHT22;5805;51.542;7.230;2022-07-29T07:26:48;21.10;99.90
11497;DHT22;5805;51.542;7.230;2022-07-29T07:29:14;21.20;99.90
11497;DHT22;5805;51.542;7.230;2022-07-29T07:31:39;21.30;99.90
11497;DHT22;5805;51.542;7.230;2022-07-29T07:34:05;21.40;99.90
11497;DHT22;5805;51.542;7.230;2022-07-29T07:36:31;21.60;99.90
11497;DHT22;5805;51.542;7.230;2022-07-29T07:38:58;21.90;99.90
11497;DHT22;5805;51.542;7.230;2022-07-29T07:41:23;22.10;99.90
11497;DHT22;5805;51.542;7.230;2022-07-29T07:43:49;22.40;99.90
11497;DHT22;5805;51.542;7.230;2022-07-29T07:46:15;22.60;99.90
11497;DHT22;5805;51.542;7.230;2022-07-29T07:48:41;22.70;99.90
11497;DHT22;5805;51.542;7.230;2022-07-29T07:51:06;22.90;99.90
11497;DHT22;5805;51.542;7.230;2022-07-29T07:53:32;23.00;99.90
11497;DHT22;5805;51.542;7.230;2022-07-29T07:55:59;23.00;99.90
11497;DHT22;5805;51.542;7.230;2022-07-29T07:58:25;23.20;99.90
11497;DHT22;5805;51.542;7.230;2022-07-29T08:00:51;23.20;99.60
11497;DHT22;5805;51.542;7.230;2022-07-29T08:03:16;23.10;98.50
11497;DHT22;5805;51.542;7.230;2022-07-29T08:05:42;23.00;99.90
11497;DHT22;5805;51.542;7.230;2022-07-29T08:08:08;23.00;99.90
11497;DHT22;5805;51.542;7.230;2022-07-29T08:10:34;23.00;99.90
11497;DHT22;5805;51.542;7.230;2022-07-29T08:13:02;23.10;99.90
11497;DHT22;5805;51.542;7.230;2022-07-29T08:15:27;23.20;99.60
11497;DHT22;5805;51.542;7.230;2022-07-29T08:17:53;23.20;99.00
11497;DHT22;5805;51.542;7.230;2022-07-29T08:20:19;23.20;98.00
11497;DHT22;5805;51.542;7.230;2022-07-29T08:22:44;23.20;97.60
11497;DHT22;5805;51.542;7.230;2022-07-29T08:25:10;23.20;98.20
11497;DHT22;5805;51.542;7.230;2022-07-29T08:27:36;23.20;98.60
11497;DHT22;5805;51.542;7.230;2022-07-29T08:30:04;23.20;98.50
11497;DHT22;5805;51.542;7.230;2022-07-29T08:32:29;23.20;98.50
11497;DHT22;5805;51.542;7.230;2022-07-29T08:34:55;23.20;99.10
11497;DHT22;5805;51.542;7.230;2022-07-29T08:37:21;23.30;98.70
11497;DHT22;5805;51.542;7.230;2022-07-29T08:39:46;23.40;99.10
11497;DHT22;5805;51.542;7.230;2022-07-29T08:42:12;23.60;98.80
11497;DHT22;5805;51.542;7.230;2022-07-29T08:44:38;23.90;96.70
11497;DHT22;5805;51.542;7.230;2022-07-29T08:47:05;24.10;96.00
11497;DHT22;5805;51.542;7.230;2022-07-29T08:49:33;24.20;94.50
11497;DHT22;5805;51.542;7.230;2022-07-29T08:52:00;24.20;94.60
11497;DHT22;5805;51.542;7.230;2022-07-29T08:54:26;24.20;95.30
11497;DHT22;5805;51.542;7.230;2022-07-29T08:56:53;24.10;95.30
11497;DHT22;5805;51.542;7.230;2022-07-29T08:59:20;23.90;95.10
11497;DHT22;5805;51.542;7.230;2022-07-29T09:01:48;23.60;95.60
11497;DHT22;5805;51.542;7.230;2022-07-29T09:04:18;23.50;96.10
11497;DHT22;5805;51.542;7.230;2022-07-29T09:06:47;23.40;96.40
11497;DHT22;5805;51.542;7.230;2022-07-29T09:09:14;23.20;97.10
11497;DHT22;5805;51.542;7.230;2022-07-29T09:11:40;23.10;98.80
11497;DHT22;5805;51.542;7.230;2022-07-29T09:14:06;23.00;99.60
11497;DHT22;5805;51.542;7.230;2022-07-29T09:16:50;22.90;99.90
11497;DHT22;5805;51.542;7.230;2022-07-29T09:19:22;22.80;99.90
11497;DHT22;5805;51.542;7.230;2022-07-29T09:21:48;22.70;99.60
11497;DHT22;5805;51.542;7.230;2022-07-29T09:24:14;22.60;99.50
11497;DHT22;5805;51.542;7.230;2022-07-29T09:26:41;22.50;99.60
11497;DHT22;5805;51.542;7.230;2022-07-29T09:29:11;22.40;99.90
11497;DHT22;5805;51.542;7.230;2022-07-29T09:31:38;22.50;99.90
11497;DHT22;5805;51.542;7.230;2022-07-29T09:34:05;22.50;99.90
11497;DHT22;5805;51.542;7.230;2022-07-29T09:36:38;22.40;99.90
11497;DHT22;5805;51.542;7.230;2022-07-29T09:39:04;22.40;99.90
11497;DHT22;5805;51.542;7.230;2022-07-29T09:41:45;22.40;99.90
11497;DHT22;5805;51.542;7.230;2022-07-29T09:44:12;22.40;99.90
11497;DHT22;5805;51.542;7.230;2022-07-29T09:46:38;22.40;99.90
11497;DHT22;5805;51.542;7.230;2022-07-29T09:49:07;22.40;99.90
11497;DHT22;5805;51.542;7.230;2022-07-29T09:51:34;22.30;99.90
11497;DHT22;5805;51.542;7.230;2022-07-29T09:54:00;22.20;99.90
11497;DHT22;5805;51.542;7.230;2022-07-29T09:56:41;22.20;99.70
11497;DHT22;5805;51.542;7.230;2022-07-29T09:59:08;22.10;99.90
11497;DHT22;5805;51.542;7.230;2022-07-29T10:01:34;22.00;99.90
11497;DHT22;5805;51.542;7.230;2022-07-29T10:04:00;22.00;99.90
11497;DHT22;5805;51.542;7.230;2022-07-29T10:06:26;22.00;99.90
11497;DHT22;5805;51.542;7.230;2022-07-29T10:08:53;21.90;99.90
11497;DHT22;5805;51.542;7.230;2022-07-29T10:11:19;21.80;99.90
11497;DHT22;5805;51.542;7.230;2022-07-29T10:13:46;21.70;99.90
11497;DHT22;5805;51.542;7.230;2022-07-29T10:16:14;21.60;99.90
11497;DHT22;5805;51.542;7.230;2022-07-29T10:18:42;21.50;99.90
11497;DHT22;5805;51.542;7.230;2022-07-29T10:21:08;21.50;99.90
11497;DHT22;5805;51.542;7.230;2022-07-29T10:23:34;21.40;99.90
11497;DHT22;5805;51.542;7.230;2022-07-29T10:26:02;21.40;99.90
11497;DHT22;5805;51.542;7.230;2022-07-29T10:28:27;21.40;99.90
11497;DHT22;5805;51.542;7.230;2022-07-29T10:31:00;21.30;99.90
11497;DHT22;5805;51.542;7.230;2022-07-29T10:33:41;21.20;99.90
11497;DHT22;5805;51.542;7.230;2022-07-29T10:36:27;21.20;99.90
11497;DHT22;5805;51.542;7.230;2022-07-29T10:39:02;21.20;99.90
11497;DHT22;5805;51.542;7.230;2022-07-29T10:42:06;21.20;99.90
11497;DHT22;5805;51.542;7.230;2022-07-29T10:44:35;21.10;99.90
11497;DHT22;5805;51.542;7.230;2022-07-29T10:47:04;21.20;99.90
11497;DHT22;5805;51.542;7.230;2022-07-29T10:49:30;21.30;99.90
11497;DHT22;5805;51.542;7.230;2022-07-29T10:52:05;21.30;99.90
11497;DHT22;5805;51.542;7.230;2022-07-29T10:54:48;21.40;99.90
11497;DHT22;5805;51.542;7.230;2022-07-29T10:57:24;21.50;99.90
11497;DHT22;5805;51.542;7.230;2022-07-29T10:59:52;21.60;99.90
11497;DHT22;5805;51.542;7.230;2022-07-29T11:02:41;21.70;99.90
11497;DHT22;5805;51.542;7.230;2022-07-29T11:05:08;21.80;99.90
11497;DHT22;5805;51.542;7.230;2022-07-29T11:07:35;21.90;99.90
11497;DHT22;5805;51.542;7.230;2022-07-29T11:10:20;21.90;99.90
11497;DHT22;5805;51.542;7.230;2022-07-29T11:12:47;21.80;99.90
11497;DHT22;5805;51.542;7.230;2022-07-29T11:15:15;21.80;99.90
11497;DHT22;5805;51.542;7.230;2022-07-29T11:18:04;21.80;99.90
11497;DHT22;5805;51.542;7.230;2022-07-29T11:20:31;21.70;99.90
11497;DHT22;5805;51.542;7.230;2022-07-29T11:22:57;21.60;99.90
11497;DHT22;5805;51.542;7.230;2022-07-29T11:25:24;21.60;99.90
11497;DHT22;5805;51.542;7.230;2022-07-29T11:27:51;21.60;99.90
11497;DHT22;5805;51.542;7.230;2022-07-29T11:30:18;21.60;99.90
11497;DHT22;5805;51.542;7.230;2022-07-29T11:32:44;21.60;99.90
11497;DHT22;5805;51.542;7.230;2022-07-29T11:35:13;21.60;99.90
11497;DHT22;5805;51.542;7.230;2022-07-29T11:37:39;21.70;99.90
11497;DHT22;5805;51.542;7.230;2022-07-29T11:40:10;21.80;99.90
11497;DHT22;5805;51.542;7.230;2022-07-29T11:42:43;21.80;99.90
11497;DHT22;5805;51.542;7.230;2022-07-29T11:45:13;21.80;99.90
11497;DHT22;5805;51.542;7.230;2022-07-29T11:47:40;21.90;99.90
11497;DHT22;5805;51.542;7.230;2022-07-29T11:50:08;21.80;99.90
11497;DHT22;5805;51.542;7.230;2022-07-29T11:52:35;21.90;99.90
11497;DHT22;5805;51.542;7.230;2022-07-29T11:55:03;22.10;99.90
11497;DHT22;5805;51.542;7.230;2022-07-29T11:57:29;22.50;99.90
11497;DHT22;5805;51.542;7.230;2022-07-29T11:59:55;22.80;99.90
11497;DHT22;5805;51.542;7.230;2022-07-29T12:02:24;23.20;98.40
11497;DHT22;5805;51.542;7.230;2022-07-29T12:04:50;23.30;97.40
11497;DHT22;5805;51.542;7.230;2022-07-29T12:07:16;23.50;97.70
11497;DHT22;5805;51.542;7.230;2022-07-29T12:09:49;23.60;96.90
11497;DHT22;5805;51.542;7.230;2022-07-29T12:12:16;23.50;96.20
11497;DHT22;5805;51.542;7.230;2022-07-29T12:14:41;23.50;96.60
11497;DHT22;5805;51.542;7.230;2022-07-29T12:17:07;23.60;96.10
11497;DHT22;5805;51.542;7.230;2022-07-29T12:19:51;23.80;96.40
11497;DHT22;5805;51.542;7.230;2022-07-29T12:22:25;23.90;95.80
11497;DHT22;5805;51.542;7.230;2022-07-29T12:24:50;24.20;95.20
11497;DHT22;5805;51.542;7.230;2022-07-29T12:27:17;24.30;95.20
11497;DHT22;5805;51.542;7.230;2022-07-29T12:29:43;24.60;94.70
11497;DHT22;5805;51.542;7.230;2022-07-29T12:32:09;24.70;94.00
11497;DHT22;5805;51.542;7.230;2022-07-29T12:34:34;24.70;92.70
11497;DHT22;5805;51.542;7.230;2022-07-29T12:37:02;24.70;92.70
11497;DHT22;5805;51.542;7.230;2022-07-29T12:39:29;24.80;93.10
11497;DHT22;5805;51.542;7.230;2022-07-29T12:41:55;25.00;92.60
11497;DHT22;5805;51.542;7.230;2022-07-29T12:44:20;25.00;91.60
11497;DHT22;5805;51.542;7.230;2022-07-29T12:47:01;24.80;90.80
11497;DHT22;5805;51.542;7.230;2022-07-29T12:49:27;24.80;91.30
11497;DHT22;5805;51.542;7.230;2022-07-29T12:51:52;25.00;91.00
11497;DHT22;5805;51.542;7.230;2022-07-29T12:54:19;25.20;90.80
11497;DHT22;5805;51.542;7.230;2022-07-29T12:56:45;25.30;90.10
11497;DHT22;5805;51.542;7.230;2022-07-29T12:59:12;25.50;88.20
11497;DHT22;5805;51.542;7.230;2022-07-29T13:01:38;25.60;84.60
11497;DHT22;5805;51.542;7.230;2022-07-29T13:04:04;25.80;84.60
11497;DHT22;5805;51.542;7.230;2022-07-29T13:06:35;25.90;84.40
11497;DHT22;5805;51.542;7.230;2022-07-29T13:09:11;26.00;84.60
11497;DHT22;5805;51.542;7.230;2022-07-29T13:11:40;26.00;81.60
11497;DHT22;5805;51.542;7.230;2022-07-29T13:14:07;26.00;82.50
11497;DHT22;5805;51.542;7.230;2022-07-29T13:16:33;26.00;83.30
11497;DHT22;5805;51.542;7.230;2022-07-29T13:19:07;26.00;81.60
11497;DHT22;5805;51.542;7.230;2022-07-29T13:21:33;25.80;81.30
11497;DHT22;5805;51.542;7.230;2022-07-29T13:23:58;25.70;82.50
11497;DHT22;5805;51.542;7.230;2022-07-29T13:26:24;25.50;82.40
11497;DHT22;5805;51.542;7.230;2022-07-29T13:28:51;25.50;82.40
11497;DHT22;5805;51.542;7.230;2022-07-29T13:31:17;25.60;83.40
11497;DHT22;5805;51.542;7.230;2022-07-29T13:33:42;25.80;83.20
11497;DHT22;5805;51.542;7.230;2022-07-29T13:36:08;25.90;83.40
11497;DHT22;5805;51.542;7.230;2022-07-29T13:38:34;26.00;82.80
11497;DHT22;5805;51.542;7.230;2022-07-29T13:41:00;26.10;81.70
11497;DHT22;5805;51.542;7.230;2022-07-29T13:43:26;26.20;81.80
11497;DHT22;5805;51.542;7.230;2022-07-29T13:45:53;26.30;81.10
11497;DHT22;5805;51.542;7.230;2022-07-29T13:48:19;26.50;79.10
11497;DHT22;5805;51.542;7.230;2022-07-29T13:50:44;26.50;79.60
11497;DHT22;5805;51.542;7.230;2022-07-29T13:53:10;26.60;78.20
11497;DHT22;5805;51.542;7.230;2022-07-29T13:55:36;26.60;76.40
11497;DHT22;5805;51.542;7.230;2022-07-29T13:58:02;26.50;76.90
11497;DHT22;5805;51.542;7.230;2022-07-29T14:00:27;26.30;76.40
11497;DHT22;5805;51.542;7.230;2022-07-29T14:02:54;26.10;76.30
11497;DHT22;5805;51.542;7.230;2022-07-29T14:05:20;25.90;78.40
11497;DHT22;5805;51.542;7.230;2022-07-29T14:07:46;25.70;77.20
11497;DHT22;5805;51.542;7.230;2022-07-29T14:10:11;25.50;76.50
11497;DHT22;5805;51.542;7.230;2022-07-29T14:12:37;25.40;77.90
11497;DHT22;5805;51.542;7.230;2022-07-29T14:15:04;25.40;78.10
11497;DHT22;5805;51.542;7.230;2022-07-29T14:17:30;25.50;77.80
11497;DHT22;5805;51.542;7.230;2022-07-29T14:19:57;25.60;78.40
11497;DHT22;5805;51.542;7.230;2022-07-29T14:22:23;25.80;78.20
11497;DHT22;5805;51.542;7.230;2022-07-29T14:24:48;26.00;78.00
11497;DHT22;5805;51.542;7.230;2022-07-29T14:27:14;26.10;77.80
11497;DHT22;5805;51.542;7.230;2022-07-29T14:29:40;26.30;77.80
11497;DHT22;5805;51.542;7.230;2022-07-29T14:32:06;26.40;77.80
11497;DHT22;5805;51.542;7.230;2022-07-29T14:34:32;26.50;77.50
11497;DHT22;5805;51.542;7.230;2022-07-29T14:36:59;26.60;75.60
11497;DHT22;5805;51.542;7.230;2022-07-29T14:39:24;26.60;74.60
11497;DHT22;5805;51.542;7.230;2022-07-29T14:41:50;26.70;73.80
11497;DHT22;5805;51.542;7.230;2022-07-29T14:44:16;26.80;73.00
11497;DHT22;5805;51.542;7.230;2022-07-29T14:46:41;26.60;71.10
11497;DHT22;5805;51.542;7.230;2022-07-29T14:49:07;26.50;70.80
11497;DHT22;5805;51.542;7.230;2022-07-29T14:51:33;26.50;71.80
11497;DHT22;5805;51.542;7.230;2022-07-29T14:54:00;26.50;70.90
11497;DHT22;5805;51.542;7.230;2022-07-29T14:56:25;26.50;72.00
11497;DHT22;5805;51.542;7.230;2022-07-29T14:58:51;26.30;71.10
11497;DHT22;5805;51.542;7.230;2022-07-29T15:01:17;26.20;70.70
11497;DHT22;5805;51.542;7.230;2022-07-29T15:03:43;26.10;71.50
11497;DHT22;5805;51.542;7.230;2022-07-29T15:06:08;26.10;71.10
11497;DHT22;5805;51.542;7.230;2022-07-29T15:08:34;26.10;72.10
11497;DHT22;5805;51.542;7.230;2022-07-29T15:11:01;26.00;72.00
11497;DHT22;5805;51.542;7.230;2022-07-29T15:13:27;25.90;71.40
11497;DHT22;5805;51.542;7.230;2022-07-29T15:15:52;25.70;72.30
11497;DHT22;5805;51.542;7.230;2022-07-29T15:18:18;25.70;73.80
11497;DHT22;5805;51.542;7.230;2022-07-29T15:20:44;25.60;72.70
11497;DHT22;5805;51.542;7.230;2022-07-29T15:23:10;25.50;73.40
11497;DHT22;5805;51.542;7.230;2022-07-29T15:25:35;25.50;74.60
11497;DHT22;5805;51.542;7.230;2022-07-29T15:28:02;25.60;76.10
11497;DHT22;5805;51.542;7.230;2022-07-29T15:30:30;25.60;77.20
11497;DHT22;5805;51.542;7.230;2022-07-29T15:32:55;25.60;78.30
11497;DHT22;5805;51.542;7.230;2022-07-29T15:35:21;25.60;79.10
11497;DHT22;5805;51.542;7.230;2022-07-29T15:37:47;25.60;79.80
11497;DHT22;5805;51.542;7.230;2022-07-29T15:40:13;25.70;79.90
11497;DHT22;5805;51.542;7.230;2022-07-29T15:42:38;25.70;80.50
11497;DHT22;5805;51.542;7.230;2022-07-29T15:45:06;25.60;80.60
11497;DHT22;5805;51.542;7.230;2022-07-29T15:47:32;25.60;81.30
11497;DHT22;5805;51.542;7.230;2022-07-29T15:50:00;25.60;81.70
11497;DHT22;5805;51.542;7.230;2022-07-29T15:52:25;25.60;81.80